Time;durP1;ratioP1;P1;durP2;ratioP2;P2;SDS_P1;SDS_P2;PMS_P1;PMS_P2;Temp;Humidity;BMP_temperature;BMP_pressure;BME280_temperature;BME280_humidity;BME280_pressure;Samples;Min_cycle;Max_cycle;Signal;HPM_P1;HPM_P2
2022/03/22 00:01:39;;;;;;;;;;;22.00;23.10;;;;;;466646;254;963;-73
2022/03/22 00:03:40;;;;;;;;;;;22.00;23.20;;;;;;466704;254;1117;-73
2022/03/22 00:05:42;;;;;;;;;;;22.00;23.30;;;;;;466680;254;1028;-73
2022/03/22 00:07:43;;;;;;;;;;;21.70;23.30;;;;;;466543;254;2209;-73
2022/03/22 00:09:44;;;;;;;;;;;21.60;23.40;;;;;;466673;254;1208;-73
2022/03/22 00:11:50;;;;;;;;;;;21.70;23.40;;;;;;466622;254;1236;-73
2022/03/22 00:13:47;;;;;;;;;;;21.50;23.40;;;;;;466723;254;1321;-73
2022/03/22 00:15:48;;;;;;;;;;;21.40;23.40;;;;;;466666;254;976;-73
2022/03/22 00:17:50;;;;;;;;;;;21.40;23.60;;;;;;466722;254;1057;-72
2022/03/22 00:19:51;;;;;;;;;;;21.50;23.60;;;;;;466704;254;1075;-73
2022/03/22 00:21:52;;;;;;;;;;;21.40;23.50;;;;;;466684;254;1072;-73
2022/03/22 00:23:54;;;;;;;;;;;21.50;23.50;;;;;;466648;254;1223;-73
2022/03/22 00:25:55;;;;;;;;;;;21.40;23.50;;;;;;466680;254;1107;-73
2022/03/22 00:27:57;;;;;;;;;;;21.30;23.50;;;;;;466677;254;2204;-73
2022/03/22 00:29:58;;;;;;;;;;;21.30;23.50;;;;;;466730;254;1431;-73
2022/03/22 00:31:59;;;;;;;;;;;21.30;23.50;;;;;;466634;254;1063;-73
2022/03/22 00:34:00;;;;;;;;;;;21.20;23.50;;;;;;466654;254;982;-73
2022/03/22 00:36:02;;;;;;;;;;;21.50;23.40;;;;;;466609;254;1091;-73
2022/03/22 00:38:03;;;;;;;;;;;21.40;23.50;;;;;;466738;254;1058;-73
2022/03/22 00:40:07;;;;;;;;;;;21.40;23.40;;;;;;466684;254;1178;-73
2022/03/22 00:42:08;;;;;;;;;;;21.50;23.40;;;;;;466679;254;1027;-73
2022/03/22 00:44:10;;;;;;;;;;;21.40;23.40;;;;;;466766;254;1064;-73
2022/03/22 00:46:11;;;;;;;;;;;21.30;23.30;;;;;;466673;254;1054;-73
2022/03/22 00:48:13;;;;;;;;;;;21.50;23.30;;;;;;466716;254;2205;-73
2022/03/22 00:50:14;;;;;;;;;;;21.60;23.40;;;;;;466646;254;1230;-73
2022/03/22 00:52:15;;;;;;;;;;;21.50;23.30;;;;;;466737;254;1119;-73
2022/03/22 00:54:16;;;;;;;;;;;21.60;23.30;;;;;;466687;254;1183;-73
2022/03/22 00:56:18;;;;;;;;;;;21.60;23.30;;;;;;466680;254;1026;-73
2022/03/22 00:58:19;;;;;;;;;;;21.50;23.20;;;;;;466695;254;1045;-73
2022/03/22 01:00:20;;;;;;;;;;;21.50;23.30;;;;;;466634;254;1108;-73
2022/03/22 01:02:22;;;;;;;;;;;21.50;23.30;;;;;;466699;254;1059;-73
2022/03/22 01:04:24;;;;;;;;;;;21.50;23.20;;;;;;466668;254;1152;-73
2022/03/22 01:06:25;;;;;;;;;;;21.60;23.30;;;;;;466594;254;1515;-73
2022/03/22 01:08:29;;;;;;;;;;;21.40;23.20;;;;;;466670;254;2216;-73
2022/03/22 01:10:27;;;;;;;;;;;21.40;23.20;;;;;;466778;254;1436;-73
2022/03/22 01:12:29;;;;;;;;;;;21.60;23.10;;;;;;466762;254;991;-73
2022/03/22 01:14:30;;;;;;;;;;;21.50;23.20;;;;;;466721;254;1025;-73
2022/03/22 01:16:32;;;;;;;;;;;21.60;23.10;;;;;;466674;254;976;-73
2022/03/22 01:18:33;;;;;;;;;;;21.50;23.10;;;;;;466648;254;987;-73
2022/03/22 01:20:34;;;;;;;;;;;21.60;23.10;;;;;;466687;254;1029;-73
2022/03/22 01:22:38;;;;;;;;;;;21.50;23.10;;;;;;466636;254;1120;-73
2022/03/22 01:24:37;;;;;;;;;;;21.50;23.10;;;;;;466709;254;1409;-73
2022/03/22 01:26:38;;;;;;;;;;;21.50;23.00;;;;;;466658;254;1087;-73
2022/03/22 01:28:39;;;;;;;;;;;21.50;23.00;;;;;;466723;254;2196;-73
2022/03/22 01:30:41;;;;;;;;;;;21.60;22.90;;;;;;466692;254;1084;-73
2022/03/22 01:32:42;;;;;;;;;;;21.70;22.90;;;;;;466650;254;1104;-73
2022/03/22 01:34:44;;;;;;;;;;;21.60;22.90;;;;;;466652;254;1086;-73
2022/03/22 01:36:45;;;;;;;;;;;21.30;23.00;;;;;;466620;254;964;-73
2022/03/22 01:38:47;;;;;;;;;;;21.40;23.00;;;;;;466697;254;1030;-73
2022/03/22 01:40:48;;;;;;;;;;;21.20;23.10;;;;;;466674;254;1202;-73
2022/03/22 01:42:49;;;;;;;;;;;21.20;23.20;;;;;;466773;254;1106;-72
2022/03/22 01:44:51;;;;;;;;;;;21.10;23.20;;;;;;466693;254;1167;-73
2022/03/22 01:46:52;;;;;;;;;;;21.20;23.20;;;;;;466690;254;1148;-73
2022/03/22 01:48:53;;;;;;;;;;;21.40;23.10;;;;;;466674;254;2205;-73
2022/03/22 01:50:54;;;;;;;;;;;21.30;23.00;;;;;;466646;254;1051;-73
2022/03/22 01:52:56;;;;;;;;;;;21.40;23.00;;;;;;466705;254;1053;-73
2022/03/22 01:54:57;;;;;;;;;;;21.30;23.00;;;;;;466678;254;1208;-73
2022/03/22 01:57:00;;;;;;;;;;;21.20;23.20;;;;;;466657;254;1214;-73
2022/03/22 01:59:00;;;;;;;;;;;21.30;23.10;;;;;;466750;254;1484;-73
2022/03/22 02:05:59;;;;;;;;;;;21.20;23.10;;;;;;454205;262;1109;-73
2022/03/22 02:08:01;;;;;;;;;;;21.20;23.20;;;;;;454831;255;1149;-73
2022/03/22 02:10:02;;;;;;;;;;;21.10;23.10;;;;;;466668;254;2201;-73
2022/03/22 02:12:03;;;;;;;;;;;21.10;23.10;;;;;;466631;254;1076;-73
2022/03/22 02:14:05;;;;;;;;;;;21.10;23.10;;;;;;466681;254;1047;-73
2022/03/22 02:16:06;;;;;;;;;;;21.10;23.20;;;;;;466676;254;1121;-73
2022/03/22 02:18:08;;;;;;;;;;;21.20;23.20;;;;;;466676;254;982;-73
2022/03/22 02:20:09;;;;;;;;;;;21.10;23.10;;;;;;466678;254;1029;-73
2022/03/22 02:22:11;;;;;;;;;;;21.10;23.10;;;;;;466684;254;1066;-73
2022/03/22 02:24:12;;;;;;;;;;;21.10;23.10;;;;;;466711;254;979;-73
2022/03/22 02:26:13;;;;;;;;;;;20.90;23.20;;;;;;466766;254;1107;-73
2022/03/22 02:28:15;;;;;;;;;;;20.80;23.30;;;;;;466827;254;2196;-73
2022/03/22 02:30:16;;;;;;;;;;;20.80;23.40;;;;;;466679;254;1077;-73
2022/03/22 02:32:17;;;;;;;;;;;20.90;23.40;;;;;;466613;254;987;-73
2022/03/22 02:34:19;;;;;;;;;;;21.20;23.20;;;;;;466712;254;1072;-73
2022/03/22 02:36:20;;;;;;;;;;;21.00;23.20;;;;;;466649;254;1330;-72
2022/03/22 02:38:21;;;;;;;;;;;21.00;23.30;;;;;;466709;254;1081;-73
2022/03/22 02:40:22;;;;;;;;;;;20.80;23.30;;;;;;466670;254;1167;-73
2022/03/22 02:42:24;;;;;;;;;;;20.80;23.40;;;;;;466683;254;1100;-73
2022/03/22 02:44:25;;;;;;;;;;;20.70;23.40;;;;;;466677;254;945;-73
2022/03/22 02:46:26;;;;;;;;;;;20.70;23.40;;;;;;466723;254;982;-73
2022/03/22 02:48:28;;;;;;;;;;;20.80;23.40;;;;;;466664;254;2192;-73
2022/03/22 02:50:29;;;;;;;;;;;21.00;23.20;;;;;;466588;254;1128;-73
2022/03/22 02:52:30;;;;;;;;;;;21.00;23.30;;;;;;466647;254;1058;-73
2022/03/22 02:54:32;;;;;;;;;;;21.00;23.10;;;;;;466741;254;1066;-73
2022/03/22 02:56:33;;;;;;;;;;;20.90;23.30;;;;;;466724;254;1173;-73
2022/03/22 02:58:35;;;;;;;;;;;20.90;23.30;;;;;;466651;254;978;-73
2022/03/22 03:00:36;;;;;;;;;;;20.90;23.30;;;;;;466685;254;1080;-73
2022/03/22 03:02:37;;;;;;;;;;;20.90;23.30;;;;;;466622;254;1113;-73
2022/03/22 03:04:38;;;;;;;;;;;20.80;23.30;;;;;;466702;254;1046;-73
2022/03/22 03:06:40;;;;;;;;;;;20.70;23.40;;;;;;466622;254;1045;-73
2022/03/22 03:08:42;;;;;;;;;;;20.70;23.40;;;;;;466694;254;2209;-73
2022/03/22 03:10:42;;;;;;;;;;;20.80;23.40;;;;;;466594;254;1165;-73
2022/03/22 03:12:44;;;;;;;;;;;20.80;23.40;;;;;;466640;254;1009;-73
2022/03/22 03:14:47;;;;;;;;;;;21.00;23.40;;;;;;466708;254;979;-73
2022/03/22 03:16:46;;;;;;;;;;;20.80;23.30;;;;;;466732;254;1345;-73
2022/03/22 03:18:49;;;;;;;;;;;20.80;23.30;;;;;;466648;254;1332;-73
2022/03/22 03:20:49;;;;;;;;;;;21.00;23.40;;;;;;466734;254;1513;-73
2022/03/22 03:22:50;;;;;;;;;;;20.80;23.40;;;;;;466571;254;1079;-73
2022/03/22 03:24:52;;;;;;;;;;;20.90;23.40;;;;;;466714;254;995;-73
2022/03/22 03:26:53;;;;;;;;;;;20.80;23.40;;;;;;466645;254;1211;-73
2022/03/22 03:28:54;;;;;;;;;;;20.80;23.50;;;;;;466597;254;2216;-73
2022/03/22 03:30:56;;;;;;;;;;;20.70;23.50;;;;;;466656;254;1104;-73
2022/03/22 03:32:57;;;;;;;;;;;20.60;23.60;;;;;;466669;254;962;-73
2022/03/22 03:34:58;;;;;;;;;;;20.60;23.50;;;;;;466656;254;973;-73
2022/03/22 03:37:00;;;;;;;;;;;20.70;23.60;;;;;;466612;254;1110;-73
2022/03/22 03:39:03;;;;;;;;;;;20.70;23.40;;;;;;466616;254;1004;-73
2022/03/22 03:43:22;;;;;;;;;;;20.60;23.40;;;;;;466694;255;1083;-73
2022/03/22 03:47:43;;;;;;;;;;;20.60;23.50;;;;;;466603;256;958;-73
2022/03/22 03:49:44;;;;;;;;;;;20.80;23.50;;;;;;466670;254;2209;-73
2022/03/22 03:51:45;;;;;;;;;;;20.80;23.50;;;;;;466633;254;988;-73
2022/03/22 03:53:47;;;;;;;;;;;20.90;23.40;;;;;;466715;254;1054;-73
2022/03/22 03:55:48;;;;;;;;;;;20.80;23.40;;;;;;466666;254;1166;-73
2022/03/22 03:57:49;;;;;;;;;;;20.70;23.60;;;;;;466671;254;1179;-73
2022/03/22 03:59:51;;;;;;;;;;;20.70;23.50;;;;;;466698;254;1014;-73
2022/03/22 04:01:52;;;;;;;;;;;21.00;23.50;;;;;;466648;254;989;-73
2022/03/22 04:03:53;;;;;;;;;;;20.80;23.40;;;;;;466687;254;1091;-73
2022/03/22 04:05:55;;;;;;;;;;;20.80;23.30;;;;;;466648;254;988;-73
2022/03/22 04:07:56;;;;;;;;;;;20.70;23.50;;;;;;466710;254;1024;-73
2022/03/22 04:09:57;;;;;;;;;;;21.00;23.30;;;;;;466806;254;2208;-73
2022/03/22 04:11:59;;;;;;;;;;;20.70;23.40;;;;;;466732;254;1189;-73
2022/03/22 04:14:00;;;;;;;;;;;20.70;23.40;;;;;;466690;254;998;-73
2022/03/22 04:16:01;;;;;;;;;;;20.90;23.40;;;;;;466683;254;1107;-73
2022/03/22 04:18:04;;;;;;;;;;;20.90;23.40;;;;;;466699;254;947;-73
2022/03/22 04:20:04;;;;;;;;;;;21.00;23.30;;;;;;466665;254;1472;-73
2022/03/22 04:22:08;;;;;;;;;;;20.80;23.30;;;;;;466684;254;1149;-73
2022/03/22 04:24:07;;;;;;;;;;;20.70;23.40;;;;;;466777;254;1465;-73
2022/03/22 04:26:08;;;;;;;;;;;20.70;23.40;;;;;;466707;254;1200;-73
2022/03/22 04:32:48;;;;;;;;;;;20.60;23.50;;;;;;466598;256;1019;-73
2022/03/22 04:34:50;;;;;;;;;;;20.70;23.40;;;;;;466758;254;1095;-73
2022/03/22 04:36:57;;;;;;;;;;;20.70;23.40;;;;;;466605;254;999;-73
2022/03/22 04:38:59;;;;;;;;;;;20.60;23.50;;;;;;466710;254;1113;-73
2022/03/22 04:41:00;;;;;;;;;;;20.70;23.40;;;;;;466652;254;1198;-73
2022/03/22 04:43:01;;;;;;;;;;;20.70;23.40;;;;;;466650;254;1092;-74
2022/03/22 04:45:02;;;;;;;;;;;21.00;23.40;;;;;;466654;254;1141;-73
2022/03/22 04:47:04;;;;;;;;;;;20.90;23.20;;;;;;466691;254;1091;-73
2022/03/22 04:49:05;;;;;;;;;;;20.80;23.30;;;;;;466727;254;2146;-73
2022/03/22 04:58:04;;;;;;;;;;;20.90;23.20;;;;;;466731;255;1053;-72
2022/03/22 05:00:06;;;;;;;;;;;20.80;23.30;;;;;;466747;254;1023;-73
2022/03/22 05:02:07;;;;;;;;;;;20.90;23.10;;;;;;466628;254;1001;-73
2022/03/22 05:04:09;;;;;;;;;;;21.20;23.20;;;;;;466588;254;1157;-73
2022/03/22 05:06:28;;;;;;;;;;;20.90;23.10;;;;;;466565;254;1030;-73
2022/03/22 05:08:32;;;;;;;;;;;20.80;23.20;;;;;;466666;254;1052;-73
2022/03/22 05:10:31;;;;;;;;;;;20.70;23.20;;;;;;466622;254;2210;-74
2022/03/22 05:12:32;;;;;;;;;;;20.90;23.10;;;;;;466544;254;1190;-74
2022/03/22 05:14:35;;;;;;;;;;;20.90;23.10;;;;;;466588;254;1092;-75
2022/03/22 05:16:35;;;;;;;;;;;21.00;23.10;;;;;;466553;254;1413;-75
2022/03/22 05:18:36;;;;;;;;;;;20.80;23.00;;;;;;466685;254;1066;-75
2022/03/22 05:20:38;;;;;;;;;;;20.90;23.10;;;;;;466535;254;1133;-75
2022/03/22 05:22:40;;;;;;;;;;;20.70;23.10;;;;;;466507;254;1018;-75
2022/03/22 05:24:41;;;;;;;;;;;20.70;23.20;;;;;;466667;254;1057;-75
2022/03/22 05:26:42;;;;;;;;;;;20.80;23.10;;;;;;466542;254;1335;-75
2022/03/22 05:28:44;;;;;;;;;;;20.90;23.10;;;;;;466561;254;1001;-75
2022/03/22 05:30:44;;;;;;;;;;;21.00;23.00;;;;;;466582;254;2197;-75
2022/03/22 05:32:46;;;;;;;;;;;21.10;23.00;;;;;;466576;254;1046;-75
2022/03/22 05:34:47;;;;;;;;;;;20.90;23.10;;;;;;466589;254;1080;-75
2022/03/22 05:36:48;;;;;;;;;;;20.90;23.10;;;;;;466486;254;968;-75
2022/03/22 05:38:50;;;;;;;;;;;20.90;23.10;;;;;;466543;254;1040;-75
2022/03/22 05:40:51;;;;;;;;;;;20.80;23.10;;;;;;466612;254;992;-76
2022/03/22 05:42:52;;;;;;;;;;;20.80;23.10;;;;;;466523;254;1195;-75
2022/03/22 05:44:54;;;;;;;;;;;20.90;23.10;;;;;;466569;254;956;-75
2022/03/22 05:46:58;;;;;;;;;;;20.70;23.10;;;;;;466442;254;1199;-75
2022/03/22 05:48:57;;;;;;;;;;;20.70;23.10;;;;;;466438;254;1436;-75
2022/03/22 05:50:58;;;;;;;;;;;20.70;23.20;;;;;;466404;254;2205;-74
2022/03/22 05:53:00;;;;;;;;;;;20.70;23.20;;;;;;466396;254;1066;-75
2022/03/22 05:55:01;;;;;;;;;;;20.70;23.20;;;;;;466473;254;1411;-75
2022/03/22 05:57:02;;;;;;;;;;;20.70;23.30;;;;;;466334;254;1319;-75
2022/03/22 05:59:04;;;;;;;;;;;20.70;23.30;;;;;;466472;254;1075;-75
2022/03/22 06:01:05;;;;;;;;;;;20.80;23.20;;;;;;466422;254;1057;-76
2022/03/22 06:03:07;;;;;;;;;;;20.80;23.20;;;;;;466503;254;1076;-75
2022/03/22 06:05:08;;;;;;;;;;;20.80;23.20;;;;;;466397;254;1061;-75
2022/03/22 06:07:10;;;;;;;;;;;20.90;23.10;;;;;;466334;254;1144;-75
2022/03/22 06:09:11;;;;;;;;;;;21.10;23.00;;;;;;466355;254;1050;-75
2022/03/22 06:11:12;;;;;;;;;;;21.20;22.90;;;;;;466296;254;2204;-75
2022/03/22 06:13:14;;;;;;;;;;;21.20;22.90;;;;;;466340;254;1229;-75
2022/03/22 06:15:15;;;;;;;;;;;21.10;23.00;;;;;;466434;254;1331;-75
2022/03/22 06:17:16;;;;;;;;;;;21.00;23.00;;;;;;466273;254;1100;-75
2022/03/22 06:19:18;;;;;;;;;;;21.10;23.00;;;;;;466386;254;1029;-75
2022/03/22 06:21:19;;;;;;;;;;;21.20;23.00;;;;;;466332;254;1029;-75
2022/03/22 06:23:22;;;;;;;;;;;21.20;23.00;;;;;;466349;254;974;-75
2022/03/22 06:25:22;;;;;;;;;;;21.10;23.00;;;;;;466290;254;1440;-75
2022/03/22 06:27:23;;;;;;;;;;;21.30;22.90;;;;;;466260;254;1348;-75
2022/03/22 06:29:25;;;;;;;;;;;21.30;22.70;;;;;;466377;254;1063;-75
2022/03/22 06:31:27;;;;;;;;;;;21.50;22.70;;;;;;466332;254;2200;-75
2022/03/22 06:33:28;;;;;;;;;;;21.70;22.60;;;;;;466343;254;1250;-75
2022/03/22 06:35:29;;;;;;;;;;;21.80;22.40;;;;;;466169;254;1069;-75
2022/03/22 06:37:30;;;;;;;;;;;22.00;22.40;;;;;;466052;252;1420;-75
2022/03/22 06:39:32;;;;;;;;;;;22.10;22.20;;;;;;466246;254;999;-75
2022/03/22 06:41:33;;;;;;;;;;;22.30;22.20;;;;;;466088;254;1044;-75
2022/03/22 06:43:34;;;;;;;;;;;22.20;22.20;;;;;;466113;254;1344;-75
2022/03/22 06:45:35;;;;;;;;;;;22.30;22.10;;;;;;466139;254;1262;-75
2022/03/22 06:47:37;;;;;;;;;;;22.40;22.00;;;;;;466335;254;1118;-75
2022/03/22 06:49:38;;;;;;;;;;;22.40;22.10;;;;;;466207;254;1143;-75
2022/03/22 06:51:40;;;;;;;;;;;22.30;22.10;;;;;;466161;254;2200;-75
2022/03/22 06:53:41;;;;;;;;;;;22.20;22.10;;;;;;466209;254;1072;-75
2022/03/22 06:55:42;;;;;;;;;;;22.10;22.10;;;;;;466135;254;1090;-75
2022/03/22 06:57:43;;;;;;;;;;;22.00;22.20;;;;;;466115;254;1174;-75
2022/03/22 06:59:45;;;;;;;;;;;21.80;22.30;;;;;;466114;254;1079;-75
2022/03/22 07:01:46;;;;;;;;;;;21.80;22.30;;;;;;466000;254;1188;-75
2022/03/22 07:03:48;;;;;;;;;;;21.70;22.40;;;;;;465953;254;1183;-75
2022/03/22 07:05:49;;;;;;;;;;;21.40;22.50;;;;;;465853;254;1080;-75
2022/03/22 07:07:50;;;;;;;;;;;21.40;22.60;;;;;;465908;254;1052;-75
2022/03/22 07:09:52;;;;;;;;;;;21.30;22.70;;;;;;465936;254;2197;-74
2022/03/22 07:11:55;;;;;;;;;;;21.10;22.70;;;;;;465981;254;1077;-75
2022/03/22 07:13:54;;;;;;;;;;;21.10;22.90;;;;;;466064;254;1382;-75
2022/03/22 07:15:56;;;;;;;;;;;21.20;22.70;;;;;;465979;254;1096;-75
2022/03/22 07:17:58;;;;;;;;;;;21.10;22.80;;;;;;466012;254;1066;-75
2022/03/22 07:19:59;;;;;;;;;;;21.20;22.80;;;;;;465990;254;1041;-74
2022/03/22 07:22:01;;;;;;;;;;;21.30;22.70;;;;;;466001;254;1120;-74
2022/03/22 07:24:02;;;;;;;;;;;21.50;22.60;;;;;;466161;254;1002;-75
2022/03/22 07:26:04;;;;;;;;;;;21.60;22.60;;;;;;466065;254;1061;-74
2022/03/22 07:28:05;;;;;;;;;;;21.50;22.60;;;;;;466042;254;1228;-75
2022/03/22 07:30:07;;;;;;;;;;;21.30;22.60;;;;;;465975;254;2200;-75
2022/03/22 07:32:08;;;;;;;;;;;21.40;22.70;;;;;;465932;254;1002;-75
2022/03/22 07:34:11;;;;;;;;;;;21.50;22.60;;;;;;465799;254;1140;-75
2022/03/22 07:36:11;;;;;;;;;;;21.40;22.70;;;;;;465759;254;1434;-75
2022/03/22 07:38:12;;;;;;;;;;;21.40;22.80;;;;;;465896;254;1116;-75
2022/03/22 07:40:13;;;;;;;;;;;21.40;22.80;;;;;;465851;254;999;-75
2022/03/22 07:42:15;;;;;;;;;;;21.30;22.90;;;;;;465865;254;991;-75
2022/03/22 07:44:17;;;;;;;;;;;21.10;23.00;;;;;;465950;254;1180;-75
2022/03/22 07:46:17;;;;;;;;;;;21.40;22.90;;;;;;465885;254;1208;-75
2022/03/22 07:48:19;;;;;;;;;;;21.30;22.90;;;;;;465848;254;1019;-75
2022/03/22 07:54:59;;;;;;;;;;;21.10;23.10;;;;;;465897;256;1051;-75
2022/03/22 07:57:00;;;;;;;;;;;21.10;23.20;;;;;;465882;254;1016;-75
2022/03/22 07:59:01;;;;;;;;;;;21.00;23.30;;;;;;465730;254;1323;-75
2022/03/22 08:01:03;;;;;;;;;;;20.90;23.40;;;;;;465704;254;1101;-75
2022/03/22 08:03:04;;;;;;;;;;;21.00;23.30;;;;;;465862;254;1236;-75
2022/03/22 08:05:05;;;;;;;;;;;21.20;23.20;;;;;;465729;254;1040;-75
2022/03/22 08:07:09;;;;;;;;;;;21.10;23.30;;;;;;465673;254;1075;-75
2022/03/22 08:09:09;;;;;;;;;;;21.00;23.40;;;;;;465856;254;1814;-74
2022/03/22 08:11:10;;;;;;;;;;;21.00;23.50;;;;;;465833;254;2205;-74
2022/03/22 08:13:11;;;;;;;;;;;21.10;23.50;;;;;;465765;254;1178;-74
2022/03/22 08:15:13;;;;;;;;;;;21.10;23.40;;;;;;465666;254;1049;-75
2022/03/22 08:17:14;;;;;;;;;;;21.00;23.50;;;;;;465394;254;1057;-75
2022/03/22 08:19:18;;;;;;;;;;;21.10;23.60;;;;;;464944;254;1203;-75
2022/03/22 08:21:19;;;;;;;;;;;21.00;23.60;;;;;;465524;254;1138;-75
2022/03/22 08:23:20;;;;;;;;;;;21.20;23.50;;;;;;465674;254;1047;-75
2022/03/22 08:25:22;;;;;;;;;;;21.30;23.40;;;;;;465598;254;1139;-75
2022/03/22 08:27:23;;;;;;;;;;;21.30;23.40;;;;;;465535;254;1269;-74
2022/03/22 08:29:25;;;;;;;;;;;21.10;23.50;;;;;;465667;254;1206;-75
2022/03/22 08:31:26;;;;;;;;;;;21.10;23.40;;;;;;465550;254;2213;-75
2022/03/22 08:33:27;;;;;;;;;;;21.20;23.50;;;;;;465757;254;1053;-75
2022/03/22 08:35:28;;;;;;;;;;;21.30;23.60;;;;;;465568;254;1066;-74
2022/03/22 08:37:30;;;;;;;;;;;21.20;23.60;;;;;;465699;254;1194;-75
2022/03/22 08:39:31;;;;;;;;;;;20.90;23.70;;;;;;465829;254;1093;-74
2022/03/22 08:41:33;;;;;;;;;;;21.10;23.70;;;;;;465869;254;1044;-74
2022/03/22 08:43:34;;;;;;;;;;;21.10;23.80;;;;;;465720;254;1109;-75
2022/03/22 08:45:35;;;;;;;;;;;21.10;23.70;;;;;;465777;254;1126;-74
2022/03/22 08:47:37;;;;;;;;;;;21.30;23.60;;;;;;465770;254;1143;-74
2022/03/22 08:49:38;;;;;;;;;;;21.10;23.70;;;;;;465700;254;1077;-74
2022/03/22 08:51:39;;;;;;;;;;;21.20;23.70;;;;;;465739;254;2197;-74
2022/03/22 08:53:41;;;;;;;;;;;21.40;23.50;;;;;;465765;254;1093;-75
2022/03/22 08:55:42;;;;;;;;;;;21.30;23.50;;;;;;465643;254;1077;-74
2022/03/22 08:57:44;;;;;;;;;;;21.40;23.60;;;;;;465642;254;1098;-74
2022/03/22 08:59:46;;;;;;;;;;;21.30;23.60;;;;;;465748;254;1340;-74
2022/03/22 09:01:48;;;;;;;;;;;21.10;23.70;;;;;;465666;254;1359;-75
2022/03/22 09:06:07;;;;;;;;;;;21.30;23.70;;;;;;465705;254;1054;-75
2022/03/22 09:06:09;;;;;;;;;;;21.30;23.80;;;;;;465877;254;1149;-75
2022/03/22 09:08:10;;;;;;;;;;;21.30;23.70;;;;;;465660;254;1064;-74
2022/03/22 09:10:14;;;;;;;;;;;21.10;23.90;;;;;;465644;254;1059;-74
2022/03/22 09:12:14;;;;;;;;;;;21.10;24.00;;;;;;465729;254;2205;-74
2022/03/22 09:14:15;;;;;;;;;;;21.30;23.90;;;;;;465659;254;1130;-74
2022/03/22 09:16:16;;;;;;;;;;;21.10;23.90;;;;;;465569;254;1073;-75
2022/03/22 09:18:17;;;;;;;;;;;21.10;23.90;;;;;;465611;254;1119;-74
2022/03/22 09:20:19;;;;;;;;;;;21.10;24.00;;;;;;465525;254;1005;-75
2022/03/22 09:22:20;;;;;;;;;;;21.10;24.00;;;;;;465789;254;1438;-74
2022/03/22 09:24:21;;;;;;;;;;;20.90;24.10;;;;;;465758;254;1206;-75
2022/03/22 09:26:23;;;;;;;;;;;21.10;23.90;;;;;;465802;254;997;-75
2022/03/22 09:28:24;;;;;;;;;;;20.80;24.10;;;;;;465741;254;1026;-75
2022/03/22 09:30:25;;;;;;;;;;;20.70;24.30;;;;;;465772;254;1219;-75
2022/03/22 09:32:27;;;;;;;;;;;20.80;24.20;;;;;;465658;254;2204;-74
2022/03/22 09:34:28;;;;;;;;;;;21.10;24.10;;;;;;465665;254;985;-75
2022/03/22 09:36:31;;;;;;;;;;;21.20;23.80;;;;;;465519;254;1060;-75
2022/03/22 09:38:31;;;;;;;;;;;21.00;23.90;;;;;;465820;254;1214;-74
2022/03/22 09:40:32;;;;;;;;;;;21.00;23.90;;;;;;465794;254;1125;-74
2022/03/22 09:42:33;;;;;;;;;;;21.20;23.80;;;;;;465782;254;1052;-74
2022/03/22 09:44:35;;;;;;;;;;;21.40;23.80;;;;;;465438;254;1171;-74
2022/03/22 09:46:36;;;;;;;;;;;21.30;23.70;;;;;;465349;254;966;-74
2022/03/22 09:48:37;;;;;;;;;;;21.50;23.80;;;;;;465580;254;1026;-75
2022/03/22 09:52:58;;;;;;;;;;;21.50;23.70;;;;;;465622;255;1283;-75
2022/03/22 09:54:59;;;;;;;;;;;21.80;23.50;;;;;;465743;254;1027;-74
2022/03/22 09:57:04;;;;;;;;;;;21.90;23.50;;;;;;465758;254;1006;-74
2022/03/22 09:59:02;;;;;;;;;;;21.70;23.40;;;;;;465693;254;1358;-75
2022/03/22 10:01:05;;;;;;;;;;;21.60;23.60;;;;;;465552;254;1063;-75
2022/03/22 10:03:05;;;;;;;;;;;21.40;23.70;;;;;;465633;254;1554;-75
2022/03/22 10:05:06;;;;;;;;;;;21.40;23.70;;;;;;465517;254;1298;-74
2022/03/22 10:07:07;;;;;;;;;;;21.20;23.80;;;;;;465527;254;1115;-75
2022/03/22 10:09:09;;;;;;;;;;;21.10;23.80;;;;;;465697;254;1076;-75
2022/03/22 10:11:10;;;;;;;;;;;21.30;23.80;;;;;;465736;254;2142;-75
2022/03/22 10:13:11;;;;;;;;;;;21.00;23.80;;;;;;465763;254;1013;-75
2022/03/22 10:15:13;;;;;;;;;;;20.90;23.90;;;;;;465696;254;1238;-75
2022/03/22 10:17:14;;;;;;;;;;;20.90;24.00;;;;;;465696;254;1157;-75
2022/03/22 10:19:16;;;;;;;;;;;20.90;24.00;;;;;;465808;254;1015;-75
2022/03/22 10:21:17;;;;;;;;;;;20.90;24.00;;;;;;465799;255;1030;-75
2022/03/22 10:23:18;;;;;;;;;;;21.00;23.90;;;;;;465775;254;1072;-75
2022/03/22 10:25:20;;;;;;;;;;;21.10;23.90;;;;;;465708;254;1088;-75
2022/03/22 10:27:21;;;;;;;;;;;21.20;23.90;;;;;;465698;254;1045;-75
2022/03/22 10:29:22;;;;;;;;;;;21.20;23.80;;;;;;465553;254;1286;-75
2022/03/22 10:31:24;;;;;;;;;;;21.10;23.90;;;;;;465442;254;2181;-75
2022/03/22 10:33:25;;;;;;;;;;;21.00;23.90;;;;;;465864;254;1022;-74
2022/03/22 10:35:26;;;;;;;;;;;21.10;23.90;;;;;;465849;254;1144;-74
2022/03/22 10:37:28;;;;;;;;;;;21.10;24.10;;;;;;465828;254;1068;-74
2022/03/22 10:39:29;;;;;;;;;;;20.90;24.10;;;;;;465640;254;1019;-76
2022/03/22 10:41:30;;;;;;;;;;;20.90;24.10;;;;;;465617;254;1066;-75
2022/03/22 10:43:32;;;;;;;;;;;20.60;24.30;;;;;;465805;254;986;-75
2022/03/22 10:45:33;;;;;;;;;;;20.50;24.40;;;;;;465831;254;1181;-75
2022/03/22 10:47:34;;;;;;;;;;;20.60;24.50;;;;;;465779;254;1103;-75
2022/03/22 10:49:36;;;;;;;;;;;20.70;24.40;;;;;;465841;254;1014;-76
2022/03/22 10:51:37;;;;;;;;;;;20.60;24.40;;;;;;465782;254;2185;-75
2022/03/22 10:53:38;;;;;;;;;;;20.80;24.30;;;;;;465721;254;1099;-76
2022/03/22 10:55:40;;;;;;;;;;;20.60;24.40;;;;;;465645;254;1021;-75
2022/03/22 10:57:41;;;;;;;;;;;20.40;24.60;;;;;;465744;254;1004;-75
2022/03/22 10:59:43;;;;;;;;;;;20.50;24.60;;;;;;465844;254;1319;-75
2022/03/22 11:01:44;;;;;;;;;;;20.50;24.70;;;;;;465806;254;1402;-75
2022/03/22 11:03:45;;;;;;;;;;;20.50;24.60;;;;;;465690;254;1052;-75
2022/03/22 11:05:46;;;;;;;;;;;20.40;24.60;;;;;;465706;254;1046;-75
2022/03/22 11:07:48;;;;;;;;;;;20.30;24.70;;;;;;465722;254;1027;-75
2022/03/22 11:09:49;;;;;;;;;;;20.20;24.80;;;;;;465913;254;1068;-75
2022/03/22 11:11:51;;;;;;;;;;;20.20;24.80;;;;;;465816;254;2216;-75
2022/03/22 11:13:52;;;;;;;;;;;20.20;24.90;;;;;;465884;254;975;-75
2022/03/22 11:15:53;;;;;;;;;;;20.20;24.80;;;;;;466000;254;1083;-74
2022/03/22 11:17:55;;;;;;;;;;;20.20;24.80;;;;;;465844;254;1082;-74
2022/03/22 11:19:57;;;;;;;;;;;20.30;24.80;;;;;;465714;254;1093;-75
2022/03/22 11:21:57;;;;;;;;;;;20.30;24.80;;;;;;465621;254;1404;-75
2022/03/22 11:24:01;;;;;;;;;;;20.30;24.80;;;;;;465791;254;1040;-75
2022/03/22 11:26:00;;;;;;;;;;;20.40;24.80;;;;;;465769;254;1415;-75
2022/03/22 11:28:01;;;;;;;;;;;20.40;24.70;;;;;;465834;254;1060;-75
2022/03/22 11:30:03;;;;;;;;;;;20.40;24.90;;;;;;465769;254;1039;-75
2022/03/22 11:34:24;;;;;;;;;;;20.20;25.00;;;;;;465825;255;980;-75
2022/03/22 11:36:26;;;;;;;;;;;20.10;25.00;;;;;;465842;254;1062;-75
2022/03/22 11:38:27;;;;;;;;;;;20.40;24.90;;;;;;465880;254;1077;-75
2022/03/22 11:42:48;;;;;;;;;;;20.40;24.90;;;;;;465560;255;1045;-75
2022/03/22 11:44:49;;;;;;;;;;;20.50;24.80;;;;;;465742;254;1239;-75
2022/03/22 11:46:50;;;;;;;;;;;20.70;24.70;;;;;;465688;254;1126;-75
2022/03/22 11:48:52;;;;;;;;;;;20.90;24.60;;;;;;465828;254;1098;-74
2022/03/22 11:50:53;;;;;;;;;;;21.00;24.50;;;;;;465691;254;1086;-74
2022/03/22 11:52:54;;;;;;;;;;;21.20;24.50;;;;;;465628;254;2193;-75
2022/03/22 11:54:56;;;;;;;;;;;21.20;24.50;;;;;;465738;254;1089;-75
2022/03/22 11:56:58;;;;;;;;;;;21.20;24.40;;;;;;465623;254;1043;-75
2022/03/22 11:58:58;;;;;;;;;;;21.30;24.30;;;;;;465932;254;1322;-75
2022/03/22 12:01:01;;;;;;;;;;;21.30;24.30;;;;;;465697;254;1285;-75
2022/03/22 12:03:01;;;;;;;;;;;21.20;24.30;;;;;;465849;254;1438;-75
2022/03/22 12:05:02;;;;;;;;;;;21.30;24.40;;;;;;465835;254;1067;-75
2022/03/22 12:07:03;;;;;;;;;;;21.10;24.40;;;;;;465768;254;1290;-75
2022/03/22 12:09:05;;;;;;;;;;;21.20;24.30;;;;;;465821;254;1197;-75
2022/03/22 12:11:09;;;;;;;;;;;21.20;24.40;;;;;;465694;251;1392;-75
2022/03/22 12:13:09;;;;;;;;;;;21.00;24.50;;;;;;465800;254;2209;-75
2022/03/22 12:15:11;;;;;;;;;;;20.80;24.70;;;;;;465803;254;1102;-75
2022/03/22 12:17:12;;;;;;;;;;;20.90;24.60;;;;;;465794;254;1184;-75
2022/03/22 12:19:13;;;;;;;;;;;20.90;24.60;;;;;;465665;254;1021;-76
2022/03/22 12:21:15;;;;;;;;;;;20.70;24.80;;;;;;465532;254;1039;-76
2022/03/22 12:23:16;;;;;;;;;;;20.40;25.10;;;;;;465797;254;1308;-76
2022/03/22 12:25:17;;;;;;;;;;;20.50;25.20;;;;;;465868;254;1430;-75
2022/03/22 12:27:19;;;;;;;;;;;20.50;25.20;;;;;;465783;254;1080;-75
2022/03/22 12:29:20;;;;;;;;;;;20.40;25.10;;;;;;465671;254;1119;-75
2022/03/22 12:31:21;;;;;;;;;;;20.40;25.10;;;;;;465550;254;1305;-74